Time;durP1;ratioP1;P1;durP2;ratioP2;P2;SDS_P1;SDS_P2;PMS_P1;PMS_P2;Temp;Humidity;BMP_temperature;BMP_pressure;BME280_temperature;BME280_humidity;BME280_pressure;Samples;Min_cycle;Max_cycle;Signal;HPM_P1;HPM_P2
2023/04/03 00:06:12;;;;;;;4.50;1.13;;;;;;;;;;5031511;27;20411;-77
2023/04/03 00:08:39;;;;;;;;;;;;;;;;;;4983112;28;20056;-77
2023/04/03 00:21:04;;;;;;;3.38;1.00;;;;;;;;;;5023551;28;20413;-70
2023/04/03 00:23:30;;;;;;;2.28;0.95;;;;;;;;;;4995687;28;20123;-73
2023/04/03 00:25:57;;;;;;;1.50;0.98;;;;;;;;;;5008528;28;20050;-72
2023/04/03 00:28:24;;;;;;;1.92;1.10;;;;;;;;;;4992159;28;20078;-72
2023/04/03 00:30:51;;;;;;;2.25;1.02;;;;;;;;;;4997893;28;20750;-72
2023/04/03 00:33:21;;;;;;;2.22;0.85;;;;;;;;;;4999112;28;20149;-77
2023/04/03 00:35:48;;;;;;;5.80;1.02;;;;;;;;;;4951548;28;20047;-69
2023/04/03 00:38:16;;;;;;;3.33;1.30;;;;;;;;;;4956095;28;20054;-71
2023/04/03 00:40:44;;;;;;;4.50;1.20;;;;;;;;;;4965572;28;20053;-75
2023/04/03 00:43:12;;;;;;;3.07;1.07;;;;;;;;;;5004148;28;20049;-72
2023/04/03 00:45:40;;;;;;;1.42;0.77;;;;;;;;;;4974648;28;20301;-71
2023/04/03 00:48:09;;;;;;;3.83;1.00;;;;;;;;;;4957626;28;20073;-72
2023/04/03 00:53:18;;;;;;;2.42;1.00;;;;;;;;;;5026330;27;20587;-74
2023/04/03 00:55:47;;;;;;;2.80;1.00;;;;;;;;;;5006358;28;20107;-71
2023/04/03 00:58:15;;;;;;;1.02;0.80;;;;;;;;;;5015323;28;20123;-76
2023/04/03 01:00:44;;;;;;;3.30;1.53;;;;;;;;;;4988565;28;20050;-71
2023/04/03 01:03:10;;;;;;;5.68;0.82;;;;;;;;;;5006491;28;20137;-76
2023/04/03 01:05:37;;;;;;;2.92;0.95;;;;;;;;;;5007811;28;20049;-75
2023/04/03 01:08:04;;;;;;;2.58;1.08;;;;;;;;;;5007229;28;20136;-75
2023/04/03 01:10:32;;;;;;;1.40;0.80;;;;;;;;;;5000566;28;20056;-71
2023/04/03 01:15:26;;;;;;;2.23;1.07;;;;;;;;;;4870134;29;20059;-76
2023/04/03 01:17:53;;;;;;;1.27;0.82;;;;;;;;;;5008279;28;20303;-75
2023/04/03 01:20:35;;;;;;;1.65;0.90;;;;;;;;;;5030692;28;20525;-74
2023/04/03 01:23:07;;;;;;;1.67;0.98;;;;;;;;;;5029563;28;20076;-76
2023/04/03 01:25:36;;;;;;;2.70;1.00;;;;;;;;;;5031370;28;20869;-74
2023/04/03 01:28:03;;;;;;;1.85;0.77;;;;;;;;;;5051183;28;20053;-75
2023/04/03 01:30:32;;;;;;;2.78;0.95;;;;;;;;;;5007320;28;20065;-72
2023/04/03 01:33:00;;;;;;;1.92;0.88;;;;;;;;;;5013287;28;20062;-75
2023/04/03 01:35:27;;;;;;;3.42;1.10;;;;;;;;;;5014208;28;20059;-73
2023/04/03 01:38:00;;;;;;;2.00;0.85;;;;;;;;;;5001831;28;20194;-79
2023/04/03 01:40:27;;;;;;;1.80;0.88;;;;;;;;;;5030520;28;20261;-75
2023/04/03 01:42:53;;;;;;;2.20;1.02;;;;;;;;;;5022458;28;20143;-76
2023/04/03 01:45:20;;;;;;;2.30;0.75;;;;;;;;;;5034502;28;20502;-75
2023/04/03 01:47:47;;;;;;;1.90;0.80;;;;;;;;;;5030715;28;20049;-74
2023/04/03 01:50:15;;;;;;;2.05;1.00;;;;;;;;;;5034308;28;20215;-80
2023/04/03 01:52:42;;;;;;;2.47;0.70;;;;;;;;;;5003845;28;20049;-75
2023/04/03 01:55:09;;;;;;;2.25;1.10;;;;;;;;;;5015718;28;20085;-74
2023/04/03 01:57:35;;;;;;;1.15;0.70;;;;;;;;;;5010595;28;20057;-72
2023/04/03 02:00:02;;;;;;;4.18;1.00;;;;;;;;;;5013221;28;20058;-75
2023/04/03 02:02:29;;;;;;;4.70;1.30;;;;;;;;;;5026382;28;20064;-74
2023/04/03 02:04:56;;;;;;;2.70;1.02;;;;;;;;;;4944592;28;20073;-68
2023/04/03 02:07:24;;;;;;;1.50;0.90;;;;;;;;;;4998908;28;20213;-77
2023/04/03 02:09:51;;;;;;;2.53;1.13;;;;;;;;;;4999408;28;20411;-69
2023/04/03 02:12:17;;;;;;;3.92;1.10;;;;;;;;;;4994914;28;20072;-72
2023/04/03 02:14:44;;;;;;;3.97;0.88;;;;;;;;;;4998395;28;20261;-74
2023/04/03 02:17:11;;;;;;;3.15;1.05;;;;;;;;;;4988594;28;20087;-74
2023/04/03 02:19:37;;;;;;;2.40;0.90;;;;;;;;;;5008775;28;21005;-73
2023/04/03 02:22:04;;;;;;;2.60;0.93;;;;;;;;;;4986090;28;20050;-72
2023/04/03 02:24:32;;;;;;;1.25;0.70;;;;;;;;;;5016257;28;20061;-73
2023/04/03 02:26:59;;;;;;;1.40;0.63;;;;;;;;;;5000567;28;20062;-75
2023/04/03 02:29:25;;;;;;;2.58;1.10;;;;;;;;;;4989501;28;20064;-67
2023/04/03 02:31:52;;;;;;;2.72;1.00;;;;;;;;;;5000747;28;20058;-74
2023/04/03 02:34:19;;;;;;;1.77;0.88;;;;;;;;;;4994056;28;20058;-79
2023/04/03 02:36:46;;;;;;;1.98;0.90;;;;;;;;;;4998302;28;20128;-77
2023/04/03 02:39:16;;;;;;;2.33;1.10;;;;;;;;;;4986896;28;20118;-78
2023/04/03 02:41:44;;;;;;;3.58;1.00;;;;;;;;;;5000629;28;20057;-69
2023/04/03 02:44:11;;;;;;;2.20;0.77;;;;;;;;;;4993931;28;20190;-76
2023/04/03 02:46:38;;;;;;;2.67;1.13;;;;;;;;;;4995015;28;20053;-77
2023/04/03 02:49:05;;;;;;;4.00;0.85;;;;;;;;;;5001386;28;20146;-77
2023/04/03 02:51:32;;;;;;;1.88;0.80;;;;;;;;;;4994304;28;20053;-74
2023/04/03 02:53:58;;;;;;;1.83;1.13;;;;;;;;;;4988987;28;20058;-79
2023/04/03 02:56:26;;;;;;;4.28;1.10;;;;;;;;;;5013429;28;20054;-74
2023/04/03 02:58:55;;;;;;;4.00;1.23;;;;;;;;;;5000201;28;20057;-69
2023/04/03 03:01:23;;;;;;;2.67;0.95;;;;;;;;;;4985284;28;20055;-76
2023/04/03 03:03:49;;;;;;;2.95;0.95;;;;;;;;;;4999161;28;20415;-69
2023/04/03 03:06:17;;;;;;;2.53;0.95;;;;;;;;;;4997665;28;20061;-69
2023/04/03 03:08:44;;;;;;;1.10;0.82;;;;;;;;;;5010062;28;20065;-76
2023/04/03 03:11:17;;;;;;;2.63;1.00;;;;;;;;;;5013262;28;20087;-73
2023/04/03 03:13:43;;;;;;;2.30;0.88;;;;;;;;;;4999707;28;20078;-76
2023/04/03 03:16:12;;;;;;;2.03;0.90;;;;;;;;;;4987621;28;20105;-73
2023/04/03 03:18:38;;;;;;;5.60;1.73;;;;;;;;;;5036283;28;20072;-77
2023/04/03 03:21:05;;;;;;;1.83;0.93;;;;;;;;;;5023475;28;20053;-72
2023/04/03 03:23:33;;;;;;;6.00;1.00;;;;;;;;;;5029202;28;20067;-73
2023/04/03 03:26:00;;;;;;;3.78;1.00;;;;;;;;;;5011657;28;20287;-79
2023/04/03 03:28:27;;;;;;;2.85;1.00;;;;;;;;;;5019833;28;20049;-73
2023/04/03 03:30:53;;;;;;;1.65;0.90;;;;;;;;;;5006866;28;20049;-75
2023/04/03 03:33:21;;;;;;;3.63;0.90;;;;;;;;;;5011332;28;20144;-73
2023/04/03 03:35:48;;;;;;;2.08;0.82;;;;;;;;;;5002227;28;20064;-76
2023/04/03 03:38:15;;;;;;;2.65;1.05;;;;;;;;;;5018635;28;20062;-75
2023/04/03 03:40:42;;;;;;;2.22;0.90;;;;;;;;;;5014622;28;20202;-74
2023/04/03 03:43:08;;;;;;;1.48;0.80;;;;;;;;;;5033347;28;20063;-74
2023/04/03 03:45:35;;;;;;;1.02;0.70;;;;;;;;;;5001484;28;20239;-75
2023/04/03 03:48:02;;;;;;;2.92;1.10;;;;;;;;;;4998542;28;20057;-72
2023/04/03 03:50:30;;;;;;;1.92;0.88;;;;;;;;;;5015888;28;20062;-74
2023/04/03 03:52:57;;;;;;;4.35;1.27;;;;;;;;;;5011327;28;20053;-71
2023/04/03 03:55:23;;;;;;;2.20;0.93;;;;;;;;;;5007055;28;20053;-78
2023/04/03 03:57:50;;;;;;;3.22;1.02;;;;;;;;;;5014951;28;20056;-75
2023/04/03 04:00:17;;;;;;;2.13;0.90;;;;;;;;;;5018006;28;20151;-76
2023/04/03 04:02:44;;;;;;;2.42;1.00;;;;;;;;;;5013275;28;20153;-74
2023/04/03 04:05:11;;;;;;;2.67;1.10;;;;;;;;;;5012132;28;20063;-68
2023/04/03 04:07:41;;;;;;;2.63;1.00;;;;;;;;;;5017400;28;20111;-75
2023/04/03 04:10:09;;;;;;;2.85;0.98;;;;;;;;;;5033836;28;20057;-71
2023/04/03 04:12:36;;;;;;;3.25;0.93;;;;;;;;;;5009496;28;20041;-73
2023/04/03 04:15:03;;;;;;;2.33;0.73;;;;;;;;;;5029710;28;20053;-79
2023/04/03 04:17:29;;;;;;;3.15;1.08;;;;;;;;;;5005404;28;20072;-76
2023/04/03 04:22:43;;;;;;;2.95;1.00;;;;;;;;;;5028889;28;20132;-76
2023/04/03 04:25:11;;;;;;;3.13;0.93;;;;;;;;;;5013585;28;20057;-70
2023/04/03 04:27:38;;;;;;;2.03;1.00;;;;;;;;;;4988273;28;20060;-76
2023/04/03 04:30:06;;;;;;;5.22;1.05;;;;;;;;;;4998707;28;20176;-73
2023/04/03 04:32:33;;;;;;;;;;;;;;;;;;4997600;28;20049;-75
2023/04/03 04:34:59;;;;;;;2.92;1.05;;;;;;;;;;4993740;28;19928;-73
2023/04/03 04:37:26;;;;;;;2.58;0.90;;;;;;;;;;4992553;28;20299;-77
2023/04/03 04:39:54;;;;;;;1.05;0.70;;;;;;;;;;4994060;28;20060;-72
2023/04/03 04:42:20;;;;;;;2.00;0.80;;;;;;;;;;4993966;28;20049;-70
2023/04/03 04:44:47;;;;;;;3.53;1.17;;;;;;;;;;4984259;28;20062;-75
2023/04/03 04:47:14;;;;;;;3.38;0.80;;;;;;;;;;4986947;28;20221;-71
2023/04/03 04:49:41;;;;;;;3.58;1.08;;;;;;;;;;4989672;28;20054;-76
2023/04/03 04:52:07;;;;;;;2.33;0.98;;;;;;;;;;4998572;28;20058;-71
2023/04/03 04:54:34;;;;;;;4.38;0.93;;;;;;;;;;4983727;28;20053;-71
2023/04/03 04:57:02;;;;;;;1.75;0.68;;;;;;;;;;5002099;28;20064;-74
2023/04/03 04:59:29;;;;;;;4.20;1.00;;;;;;;;;;5007823;28;20046;-77
2023/04/03 05:01:55;;;;;;;4.00;1.08;;;;;;;;;;5018471;28;20065;-79
2023/04/03 05:04:22;;;;;;;5.15;1.10;;;;;;;;;;5011860;28;20053;-73
2023/04/03 05:06:49;;;;;;;3.65;1.08;;;;;;;;;;5018757;28;20404;-72
2023/04/03 05:09:19;;;;;;;1.85;1.02;;;;;;;;;;5010424;28;20061;-70
2023/04/03 05:11:46;;;;;;;2.75;1.20;;;;;;;;;;5045597;28;20050;-80
2023/04/03 05:14:16;;;;;;;3.03;1.00;;;;;;;;;;5008308;28;20049;-77
2023/04/03 05:16:43;;;;;;;5.30;1.33;;;;;;;;;;5015961;28;20367;-77
2023/04/03 05:19:10;;;;;;;3.42;1.13;;;;;;;;;;5018247;28;20208;-76
2023/04/03 05:21:36;;;;;;;2.78;1.08;;;;;;;;;;4990207;28;20136;-72
2023/04/03 05:24:04;;;;;;;4.95;1.30;;;;;;;;;;4994601;28;20057;-70
2023/04/03 05:26:31;;;;;;;1.83;1.10;;;;;;;;;;4996061;28;20057;-72
2023/04/03 05:29:00;;;;;;;5.18;1.20;;;;;;;;;;5051518;28;20187;-73
2023/04/03 05:31:32;;;;;;;4.75;1.23;;;;;;;;;;5026579;28;20146;-78
2023/04/03 05:33:59;;;;;;;4.97;1.30;;;;;;;;;;4998478;28;20052;-77
2023/04/03 05:36:27;;;;;;;3.63;0.90;;;;;;;;;;5018233;28;20049;-72
2023/04/03 05:38:56;;;;;;;3.92;1.10;;;;;;;;;;5053193;28;20054;-73
2023/04/03 05:41:23;;;;;;;4.85;1.08;;;;;;;;;;5009025;28;20053;-74
2023/04/03 05:43:49;;;;;;;1.55;0.90;;;;;;;;;;5019808;28;20156;-75
2023/04/03 05:46:17;;;;;;;2.60;1.17;;;;;;;;;;4995490;28;20058;-74
2023/04/03 05:48:46;;;;;;;4.78;1.42;;;;;;;;;;5016223;28;20150;-69
2023/04/03 05:51:15;;;;;;;2.45;0.95;;;;;;;;;;5009357;28;20060;-71
2023/04/03 05:53:49;;;;;;;3.05;1.10;;;;;;;;;;5014594;28;20068;-73
2023/04/03 05:56:18;;;;;;;2.72;0.98;;;;;;;;;;4949044;28;20109;-71
2023/04/03 05:58:46;;;;;;;4.38;1.40;;;;;;;;;;5007793;28;20443;-75
2023/04/03 06:01:19;;;;;;;4.18;1.17;;;;;;;;;;5009560;28;20064;-74
2023/04/03 06:03:48;;;;;;;3.00;1.10;;;;;;;;;;5032673;28;20053;-71
2023/04/03 06:06:15;;;;;;;3.85;0.98;;;;;;;;;;4988822;28;20061;-76
2023/04/03 06:08:43;;;;;;;2.47;0.93;;;;;;;;;;5018122;28;20087;-71
2023/04/03 06:11:11;;;;;;;2.85;1.00;;;;;;;;;;5041206;28;20125;-72
2023/04/03 06:13:40;;;;;;;6.47;1.40;;;;;;;;;;5012908;28;20123;-74
2023/04/03 06:16:07;;;;;;;1.73;0.93;;;;;;;;;;5017989;28;20304;-72
2023/04/03 06:18:33;;;;;;;1.73;0.93;;;;;;;;;;5028321;28;20125;-78
2023/04/03 06:21:16;;;;;;;3.08;1.02;;;;;;;;;;5032266;28;20535;-79
2023/04/03 06:23:47;;;;;;;2.92;1.10;;;;;;;;;;5003318;28;20084;-78
2023/04/03 06:26:17;;;;;;;3.45;1.02;;;;;;;;;;5003468;28;20133;-80
2023/04/03 06:28:43;;;;;;;2.85;0.88;;;;;;;;;;5033366;28;20057;-74
2023/04/03 06:31:10;;;;;;;2.17;0.90;;;;;;;;;;5014126;28;20057;-75
2023/04/03 06:33:40;;;;;;;2.92;0.98;;;;;;;;;;4994406;28;20072;-78
2023/04/03 06:36:08;;;;;;;2.15;1.00;;;;;;;;;;5001865;28;20056;-73
2023/04/03 06:38:35;;;;;;;;;;;;;;;;;;5012380;28;20057;-70
2023/04/03 06:41:01;;;;;;;3.15;1.00;;;;;;;;;;5016010;28;19983;-78
2023/04/03 06:43:28;;;;;;;3.63;1.20;;;;;;;;;;4997994;28;20049;-76
2023/04/03 06:45:55;;;;;;;5.70;1.15;;;;;;;;;;5018199;28;20057;-73
2023/04/03 06:48:23;;;;;;;4.90;1.15;;;;;;;;;;5011632;28;20068;-72
2023/04/03 06:50:52;;;;;;;5.15;1.00;;;;;;;;;;5015160;28;20053;-75
2023/04/03 06:53:23;;;;;;;5.57;0.98;;;;;;;;;;4978418;28;20251;-74
2023/04/03 06:55:49;;;;;;;3.25;1.00;;;;;;;;;;4947068;28;20061;-73
2023/04/03 06:58:17;;;;;;;3.45;1.13;;;;;;;;;;4977502;28;20054;-75
2023/04/03 07:00:44;;;;;;;2.83;1.13;;;;;;;;;;4967391;28;20058;-74
2023/04/03 07:03:10;;;;;;;4.95;1.15;;;;;;;;;;4964394;28;20253;-74
2023/04/03 07:05:40;;;;;;;5.13;1.40;;;;;;;;;;4952865;28;20060;-72
2023/04/03 07:08:06;;;;;;;3.13;1.17;;;;;;;;;;4977410;28;20054;-77
2023/04/03 07:10:34;;;;;;;4.07;1.20;;;;;;;;;;4965905;28;20133;-72
2023/04/03 07:13:02;;;;;;;2.40;0.77;;;;;;;;;;4975857;28;20050;-78
2023/04/03 07:15:29;;;;;;;3.13;1.03;;;;;;;;;;4970481;28;20154;-73
2023/04/03 07:17:56;;;;;;;12.93;4.55;;;;;;;;;;4976158;28;20062;-68
2023/04/03 07:20:22;;;;;;;11.93;4.70;;;;;;;;;;4972116;28;20058;-75
2023/04/03 07:22:49;;;;;;;8.13;3.65;;;;;;;;;;4976724;28;20061;-73
2023/04/03 07:25:16;;;;;;;9.70;3.53;;;;;;;;;;4960909;28;20078;-78
2023/04/03 07:27:44;;;;;;;10.07;3.58;;;;;;;;;;4973551;28;20153;-71
2023/04/03 07:30:11;;;;;;;8.48;3.33;;;;;;;;;;4970929;28;20061;-72
2023/04/03 07:32:38;;;;;;;6.28;2.65;;;;;;;;;;4975572;28;20054;-72
2023/04/03 07:35:09;;;;;;;15.20;5.30;;;;;;;;;;4943153;28;20186;-76
2023/04/03 07:37:36;;;;;;;11.75;4.95;;;;;;;;;;4962845;28;20161;-70
2023/04/03 07:40:15;;;;;;;13.40;4.47;;;;;;;;;;4970610;28;20102;-73
2023/04/03 07:42:47;;;;;;;9.10;3.67;;;;;;;;;;4957546;28;20081;-75
2023/04/03 07:45:17;;;;;;;8.02;2.80;;;;;;;;;;4893423;28;20059;-76
2023/04/03 07:47:46;;;;;;;8.90;2.80;;;;;;;;;;4878918;29;20056;-72
2023/04/03 07:50:12;;;;;;;8.07;2.65;;;;;;;;;;4891641;29;20078;-70
2023/04/03 07:52:40;;;;;;;9.30;2.60;;;;;;;;;;4915506;28;20241;-74
2023/04/03 07:55:10;;;;;;;6.03;2.50;;;;;;;;;;4924631;28;20102;-69
2023/04/03 07:57:37;;;;;;;6.40;2.33;;;;;;;;;;4971208;28;20058;-69
2023/04/03 08:00:08;;;;;;;6.03;2.08;;;;;;;;;;4937951;28;20058;-69
2023/04/03 08:02:35;;;;;;;7.82;2.40;;;;;;;;;;4927789;28;20050;-68
2023/04/03 08:10:25;;;;;;;6.60;2.03;;;;;;;;;;4875931;28;20070;-77
2023/04/03 08:12:54;;;;;;;6.25;2.22;;;;;;;;;;4892245;28;20147;-75
2023/04/03 08:15:22;;;;;;;7.30;1.77;;;;;;;;;;4911986;28;20106;-71
2023/04/03 08:17:50;;;;;;;5.97;1.73;;;;;;;;;;4904183;28;20059;-73
2023/04/03 08:20:17;;;;;;;4.40;1.40;;;;;;;;;;4921528;28;20078;-79
2023/04/03 08:22:46;;;;;;;4.30;1.70;;;;;;;;;;4947247;28;20058;-73
2023/04/03 08:25:17;;;;;;;4.78;1.60;;;;;;;;;;4988802;28;20058;-73
2023/04/03 08:27:43;;;;;;;4.57;1.38;;;;;;;;;;4981851;28;20073;-74
2023/04/03 08:30:12;;;;;;;3.20;1.30;;;;;;;;;;4995105;28;20133;-78
2023/04/03 08:32:44;;;;;;;4.63;1.20;;;;;;;;;;4995316;28;20057;-74
2023/04/03 08:35:11;;;;;;;5.28;1.25;;;;;;;;;;5003598;28;20073;-80
2023/04/03 08:37:38;;;;;;;2.25;0.95;;;;;;;;;;4997763;28;20103;-71
2023/04/03 08:40:10;;;;;;;4.82;1.30;;;;;;;;;;5029050;28;20061;-72
2023/04/03 08:42:45;;;;;;;2.17;0.80;;;;;;;;;;5024389;28;20116;-75
2023/04/03 08:45:25;;;;;;;4.53;1.25;;;;;;;;;;4928001;28;20082;-68
2023/04/03 08:47:56;;;;;;;2.88;1.10;;;;;;;;;;4945010;28;20065;-77
2023/04/03 08:50:25;;;;;;;1.45;0.75;;;;;;;;;;4998110;28;20080;-74
2023/04/03 08:52:57;;;;;;;2.28;0.95;;;;;;;;;;4992428;28;20073;-74
2023/04/03 08:55:28;;;;;;;3.35;0.80;;;;;;;;;;4957504;28;20409;-75
2023/04/03 08:58:18;;;;;;;3.20;0.80;;;;;;;;;;4979187;28;20061;-79
2023/04/03 09:00:50;;;;;;;1.30;0.63;;;;;;;;;;5012452;28;20060;-72
2023/04/03 09:03:22;;;;;;;2.60;0.80;;;;;;;;;;5018741;28;20055;-71
2023/04/03 09:05:52;;;;;;;2.15;0.68;;;;;;;;;;4979564;28;20144;-68
2023/04/03 09:08:27;;;;;;;0.90;0.47;;;;;;;;;;4972882;28;20068;-76
2023/04/03 09:11:02;;;;;;;1.05;0.60;;;;;;;;;;4955854;28;20070;-70
2023/04/03 09:13:56;;;;;;;0.77;0.50;;;;;;;;;;4998781;28;20203;-78
2023/04/03 09:16:29;;;;;;;0.55;0.50;;;;;;;;;;4960656;28;20053;-68
2023/04/03 09:19:03;;;;;;;1.05;0.50;;;;;;;;;;5004529;28;20138;-76
2023/04/03 09:21:33;;;;;;;1.00;0.52;;;;;;;;;;5001026;28;20124;-70
2023/04/03 09:24:07;;;;;;;2.20;0.85;;;;;;;;;;5012408;28;20163;-72
2023/04/03 09:26:37;;;;;;;2.15;0.80;;;;;;;;;;4962130;28;20072;-73
2023/04/03 09:29:16;;;;;;;1.45;0.60;;;;;;;;;;4995830;28;20061;-70
2023/04/03 09:31:46;;;;;;;1.25;0.60;;;;;;;;;;4981428;28;20050;-73
2023/04/03 09:34:18;;;;;;;1.83;0.80;;;;;;;;;;4997711;28;20096;-72
2023/04/03 09:36:47;;;;;;;0.77;0.35;;;;;;;;;;5035199;28;20064;-74
2023/04/03 09:39:17;;;;;;;2.20;0.40;;;;;;;;;;5018337;28;20051;-72
2023/04/03 09:41:57;;;;;;;2.53;0.90;;;;;;;;;;5007471;28;20064;-72
2023/04/03 09:44:24;;;;;;;2.80;1.00;;;;;;;;;;5026639;28;20160;-74
2023/04/03 09:46:51;;;;;;;3.83;1.50;;;;;;;;;;4973916;28;20061;-74
2023/04/03 09:49:24;;;;;;;2.85;1.25;;;;;;;;;;4961170;28;20053;-71
2023/04/03 09:51:51;;;;;;;1.38;0.60;;;;;;;;;;5011689;28;20330;-74
2023/04/03 09:54:39;;;;;;;2.22;0.80;;;;;;;;;;4982462;28;20050;-72
2023/04/03 09:57:21;;;;;;;0.40;0.30;;;;;;;;;;4879217;28;20063;-73
2023/04/03 10:02:24;;;;;;;0.33;0.30;;;;;;;;;;4860413;29;20099;-74
2023/04/03 10:04:53;;;;;;;0.30;0.30;;;;;;;;;;4902246;29;20346;-72
2023/04/03 10:07:38;;;;;;;1.15;0.45;;;;;;;;;;4879206;28;20059;-74
2023/04/03 10:10:25;;;;;;;1.77;0.73;;;;;;;;;;4916312;29;20237;-71
2023/04/03 10:13:10;;;;;;;2.72;0.43;;;;;;;;;;4916129;28;20069;-71
2023/04/03 10:15:41;;;;;;;1.42;0.47;;;;;;;;;;4902744;28;20064;-71
2023/04/03 10:18:16;;;;;;;3.17;1.00;;;;;;;;;;4911766;29;20089;-71
2023/04/03 10:20:49;;;;;;;7.95;2.05;;;;;;;;;;4932877;28;20042;-72
2023/04/03 10:23:23;;;;;;;4.63;1.67;;;;;;;;;;4980555;28;20057;-73
2023/04/03 10:25:55;;;;;;;1.65;0.90;;;;;;;;;;4944876;28;20043;-71
2023/04/03 10:28:40;;;;;;;1.97;0.70;;;;;;;;;;4984867;28;20053;-72
2023/04/03 10:31:14;;;;;;;3.42;0.70;;;;;;;;;;5000852;28;20504;-72
2023/04/03 10:33:46;;;;;;;1.25;0.50;;;;;;;;;;4941876;28;20157;-70
2023/04/03 10:38:48;;;;;;;1.65;0.60;;;;;;;;;;4874737;28;20038;-70
2023/04/03 10:41:18;;;;;;;1.67;0.47;;;;;;;;;;4972847;28;20058;-70
2023/04/03 10:43:50;;;;;;;1.15;0.45;;;;;;;;;;4982889;28;20068;-74
2023/04/03 10:46:20;;;;;;;2.03;0.50;;;;;;;;;;5002521;28;20063;-74
2023/04/03 10:48:55;;;;;;;1.23;0.60;;;;;;;;;;5007481;28;20060;-71
2023/04/03 10:51:28;;;;;;;1.48;0.88;;;;;;;;;;4971591;28;20129;-72
2023/04/03 10:54:01;;;;;;;1.95;0.85;;;;;;;;;;4944689;28;20050;-73
2023/04/03 10:56:32;;;;;;;2.78;1.10;;;;;;;;;;5006144;28;20060;-72
2023/04/03 10:59:02;;;;;;;2.92;0.82;;;;;;;;;;5014186;28;20061;-72
2023/04/03 11:04:25;;;;;;;3.95;0.80;;;;;;;;;;5005446;28;20421;-73
2023/04/03 11:06:55;;;;;;;1.10;0.60;;;;;;;;;;4970032;28;20052;-71
2023/04/03 11:09:26;;;;;;;2.83;0.70;;;;;;;;;;5001332;28;20063;-70
2023/04/03 11:11:55;;;;;;;3.30;0.60;;;;;;;;;;4980527;28;20113;-71
2023/04/03 11:19:13;;;;;;;1.48;0.60;;;;;;;;;;5030205;27;21030;-71
2023/04/03 11:21:43;;;;;;;2.23;0.93;;;;;;;;;;4959980;28;20046;-70
2023/04/03 11:24:17;;;;;;;0.57;0.40;;;;;;;;;;4948252;28;20069;-72
2023/04/03 11:26:44;;;;;;;1.63;0.47;;;;;;;;;;4984029;28;20052;-72
2023/04/03 11:29:13;;;;;;;3.55;0.77;;;;;;;;;;5014502;28;20067;-72
2023/04/03 11:31:45;;;;;;;1.05;0.45;;;;;;;;;;5030482;28;20103;-71
2023/04/03 11:34:24;;;;;;;2.03;0.65;;;;;;;;;;4996042;28;20060;-70
2023/04/03 11:42:15;;;;;;;5.85;1.33;;;;;;;;;;5050803;27;20665;-74
2023/04/03 11:44:43;;;;;;;1.55;0.80;;;;;;;;;;4971748;28;20111;-71
2023/04/03 11:47:12;;;;;;;3.08;0.95;;;;;;;;;;4993327;28;20084;-72
2023/04/03 11:49:56;;;;;;;2.38;1.05;;;;;;;;;;5001316;28;20045;-73
2023/04/03 11:52:56;;;;;;;7.57;0.90;;;;;;;;;;5008157;28;20597;-72
2023/04/03 11:55:41;;;;;;;7.40;0.73;;;;;;;;;;4961787;28;20058;-73
2023/04/03 11:58:14;;;;;;;0.73;0.57;;;;;;;;;;4887213;28;20079;-73
2023/04/03 12:00:50;;;;;;;1.08;0.60;;;;;;;;;;4880592;29;20059;-73
2023/04/03 12:06:18;;;;;;;3.13;0.70;;;;;;;;;;4860189;29;20071;-72
2023/04/03 12:08:50;;;;;;;1.88;0.45;;;;;;;;;;4847187;29;20150;-73
2023/04/03 12:18:58;;;;;;;0.30;0.30;;;;;;;;;;5028073;27;20505;-70
2023/04/03 12:21:40;;;;;;;2.60;0.70;;;;;;;;;;5039943;28;20048;-71
2023/04/03 12:24:24;;;;;;;1.58;0.50;;;;;;;;;;5016391;28;20064;-71
2023/04/03 12:26:52;;;;;;;2.63;0.80;;;;;;;;;;5020346;28;20106;-71
2023/04/03 12:29:21;;;;;;;2.60;0.75;;;;;;;;;;5001763;28;20516;-74
2023/04/03 12:31:53;;;;;;;3.45;0.82;;;;;;;;;;4958346;28;20085;-72
2023/04/03 12:34:37;;;;;;;3.28;0.88;;;;;;;;;;4944132;28;20197;-70
2023/04/03 12:37:08;;;;;;;1.48;0.85;;;;;;;;;;4898090;28;20064;-71
2023/04/03 12:47:23;;;;;;;1.88;0.80;;;;;;;;;;4973632;27;20546;-72
2023/04/03 12:49:51;;;;;;;3.28;0.90;;;;;;;;;;4981736;28;20057;-70
2023/04/03 13:00:19;;;;;;;2.63;0.70;;;;;;;;;;5055654;28;20480;-72
2023/04/03 13:02:46;;;;;;;5.20;0.75;;;;;;;;;;4996685;28;20152;-71
2023/04/03 13:05:18;;;;;;;1.83;0.60;;;;;;;;;;4995344;28;20058;-72
2023/04/03 13:13:09;;;;;;;4.25;0.82;;;;;;;;;;5065694;27;20199;-73
2023/04/03 13:15:55;;;;;;;3.20;0.93;;;;;;;;;;5017948;28;20226;-70
2023/04/03 13:18:27;;;;;;;2.60;0.70;;;;;;;;;;4976805;28;20069;-71
2023/04/03 13:20:55;;;;;;;2.22;0.65;;;;;;;;;;5004218;28;20057;-71
2023/04/03 13:23:23;;;;;;;3.20;0.90;;;;;;;;;;5010607;28;20170;-71
2023/04/03 13:25:50;;;;;;;2.95;0.88;;;;;;;;;;5012487;28;20053;-71
2023/04/03 13:28:22;;;;;;;1.63;0.68;;;;;;;;;;4995931;28;20052;-72
2023/04/03 13:31:01;;;;;;;3.20;1.00;;;;;;;;;;4991544;28;20081;-70
2023/04/03 13:40:51;;;;;;;2.88;0.70;;;;;;;;;;4866143;29;20052;-69
2023/04/03 13:53:16;;;;;;;2.50;0.90;;;;;;;;;;4859416;29;20053;-72
2023/04/03 13:55:57;;;;;;;2.58;0.80;;;;;;;;;;4894048;28;20063;-71
2023/04/03 13:58:25;;;;;;;4.50;0.90;;;;;;;;;;4893267;28;20055;-75
2023/04/03 14:00:53;;;;;;;2.75;0.77;;;;;;;;;;4938886;28;20317;-72
2023/04/03 14:03:22;;;;;;;2.33;0.80;;;;;;;;;;4923161;28;20066;-72
2023/04/03 14:05:53;;;;;;;2.08;0.70;;;;;;;;;;4941911;28;20062;-72
2023/04/03 14:11:26;;;;;;;3.05;1.00;;;;;;;;;;4978964;28;20489;-73
2023/04/03 14:13:54;;;;;;;3.15;0.82;;;;;;;;;;4920070;28;20052;-71
2023/04/03 14:30:21;;;;;;;1.52;0.63;;;;;;;;;;6208981;21;1416652;-71
2023/04/03 14:32:51;;;;;;;2.15;0.88;;;;;;;;;;6094160;23;20026;-73
2023/04/03 14:37:46;;;;;;;1.58;0.80;;;;;;;;;;5961075;23;20038;-72
2023/04/03 14:51:15;;;;;;;2.47;0.82;;;;;;;;;;5005558;28;20433;-72
2023/04/03 14:53:43;;;;;;;3.85;0.95;;;;;;;;;;4993006;28;20053;-77
2023/04/03 14:56:12;;;;;;;2.90;1.08;;;;;;;;;;4976904;28;20069;-73
2023/04/03 14:58:39;;;;;;;3.80;1.10;;;;;;;;;;4913930;28;20065;-73
2023/04/03 15:01:08;;;;;;;1.73;0.80;;;;;;;;;;4960555;28;20090;-74
2023/04/03 15:03:37;;;;;;;2.92;0.90;;;;;;;;;;4940722;28;20064;-74
2023/04/03 15:06:04;;;;;;;6.07;1.08;;;;;;;;;;4951617;28;20141;-74
2023/04/03 15:11:44;;;;;;;2.75;0.98;;;;;;;;;;5021308;27;20739;-73
2023/04/03 15:14:17;;;;;;;4.95;1.00;;;;;;;;;;5005759;28;20049;-76
2023/04/03 15:16:44;;;;;;;5.05;1.35;;;;;;;;;;4982190;28;20073;-75
2023/04/03 15:21:53;;;;;;;3.72;1.05;;;;;;;;;;5055317;27;20517;-75
2023/04/03 15:24:22;;;;;;;2.50;0.85;;;;;;;;;;4959935;28;20058;-78
2023/04/03 15:26:49;;;;;;;7.57;1.10;;;;;;;;;;4936960;28;20149;-75
2023/04/03 15:32:00;;;;;;;5.00;1.30;;;;;;;;;;5078385;27;20483;-73
2023/04/03 15:34:31;;;;;;;1.88;0.68;;;;;;;;;;5009498;28;20084;-73
2023/04/03 15:36:58;;;;;;;4.35;1.10;;;;;;;;;;4960696;28;20111;-71
2023/04/03 15:39:26;;;;;;;4.38;1.60;;;;;;;;;;4877393;28;20061;-71
2023/04/03 15:42:03;;;;;;;10.52;2.80;;;;;;;;;;4923947;28;20055;-69
2023/04/03 15:44:30;;;;;;;9.35;2.70;;;;;;;;;;4923881;28;20126;-75
2023/04/03 15:51:53;;;;;;;4.10;1.20;;;;;;;;;;4865935;29;20398;-74
2023/04/03 15:54:23;;;;;;;2.75;1.05;;;;;;;;;;4924681;28;20087;-71
2023/04/03 15:56:52;;;;;;;4.63;1.00;;;;;;;;;;4942256;28;20049;-72
2023/04/03 15:59:18;;;;;;;;;;;;;;;;;;4974564;28;20058;-70
2023/04/03 16:01:45;;;;;;;2.33;0.90;;;;;;;;;;5008715;28;19925;-71
2023/04/03 16:04:20;;;;;;;3.50;1.10;;;;;;;;;;4987581;28;20062;-70
2023/04/03 16:06:53;;;;;;;3.17;1.25;;;;;;;;;;4948559;28;20055;-72
2023/04/03 16:11:19;;;;;;;5.90;1.70;;;;;;;;;;5078725;27;20416;-73
2023/04/03 16:13:46;;;;;;;16.27;5.47;;;;;;;;;;4996428;28;20050;-72
2023/04/03 16:16:20;;;;;;;13.55;4.22;;;;;;;;;;5004830;28;20068;-73
2023/04/03 16:18:47;;;;;;;9.52;3.03;;;;;;;;;;5011584;28;20056;-73
2023/04/03 16:21:15;;;;;;;9.13;2.10;;;;;;;;;;5042704;28;20052;-69
2023/04/03 16:23:42;;;;;;;5.43;1.60;;;;;;;;;;5047630;28;20052;-70
2023/04/03 16:26:12;;;;;;;8.07;1.40;;;;;;;;;;5040434;28;20060;-78
2023/04/03 16:34:22;;;;;;;3.38;1.10;;;;;;;;;;4960705;28;20583;-83
2023/04/03 16:36:54;;;;;;;3.85;0.90;;;;;;;;;;4882096;29;20143;-80
2023/04/03 16:39:39;;;;;;;4.13;0.90;;;;;;;;;;4856087;28;20067;-70
2023/04/03 16:47:47;;;;;;;5.05;1.10;;;;;;;;;;5048941;27;20422;-73
2023/04/03 16:50:13;;;;;;;9.15;1.88;;;;;;;;;;4988037;28;20107;-74
2023/04/03 16:52:40;;;;;;;5.60;1.60;;;;;;;;;;4978507;28;20145;-70
2023/04/03 16:55:13;;;;;;;2.63;1.23;;;;;;;;;;4998321;28;20065;-72
2023/04/03 16:57:40;;;;;;;4.68;1.33;;;;;;;;;;4967111;28;20163;-70
2023/04/03 17:00:10;;;;;;;3.45;1.08;;;;;;;;;;4997748;28;20072;-71
2023/04/03 17:02:37;;;;;;;3.10;1.13;;;;;;;;;;4995437;28;20057;-72
2023/04/03 17:05:05;;;;;;;7.03;1.40;;;;;;;;;;4998603;28;20115;-68
2023/04/03 17:07:32;;;;;;;2.22;1.13;;;;;;;;;;4990039;28;20049;-69
2023/04/03 17:10:02;;;;;;;7.28;1.35;;;;;;;;;;4984234;28;20049;-75
2023/04/03 17:12:30;;;;;;;5.88;1.40;;;;;;;;;;4967316;28;20058;-71
2023/04/03 17:14:59;;;;;;;7.38;1.15;;;;;;;;;;4938819;28;20097;-75
2023/04/03 17:17:27;;;;;;;4.47;1.60;;;;;;;;;;4932191;28;20096;-74
2023/04/03 17:22:37;;;;;;;9.35;2.30;;;;;;;;;;5041258;27;20645;-73
2023/04/03 17:25:03;;;;;;;6.43;2.17;;;;;;;;;;5011957;28;20072;-75
2023/04/03 17:27:32;;;;;;;5.22;2.13;;;;;;;;;;4978008;28;20058;-74
2023/04/03 17:30:03;;;;;;;5.40;2.20;;;;;;;;;;4941074;28;20066;-74
2023/04/03 17:32:30;;;;;;;8.75;1.80;;;;;;;;;;5022095;28;20140;-71